Allentown, New Jersey
Current Conditions -  °F | °C
As of 1:20 PM on Tuesday 27 Jan 2015 (Local Time) from KWRI Reporting Station
Scattered Clouds Scattered Clouds  
Wind Chill: 14°   Ceiling: Unl
Heat Index: 27°   Visibility: 10mi
Dew Point: 19°   Wind: 16mph
Humidity: 74%   Direction: 300°WNW
Pressure: 29.67"   Gusts: NA
Location:  40.18°N, 74.58°W
Report Text: KWRI 271820Z 30014KT 10SM SCT015 SCT200 M03/M07 A2967 RMK AO2A SNE1759 CIG 016 RWY24 $
Loading
Personal Weather Stations






























Interactive Weather Map New forecast layout! Learn more

10-Day Weather Forecast

Advertisements
Track Severe Weather on mobile